Time;durP1;ratioP1;P1;durP2;ratioP2;P2;SDS_P1;SDS_P2;PMS_P1;PMS_P2;Temp;Humidity;BMP_temperature;BMP_pressure;BME280_temperature;BME280_humidity;BME280_pressure;Samples;Min_cycle;Max_cycle;Signal;HPM_P1;HPM_P2
2022/09/04 00:01:40;;;;;;;2.47;1.60;;;26.50;62.80;;;;;;5033081;28;20107;-58
2022/09/04 00:04:09;;;;;;;1.90;1.70;;;26.50;56.80;;;;;;4945105;28;20048;-58
2022/09/04 00:06:46;;;;;;;1.77;1.33;;;26.40;62.60;;;;;;5032984;28;20025;-58
2022/09/04 00:09:31;;;;;;;2.10;1.52;;;26.70;63.10;;;;;;5032969;28;20025;-58
2022/09/04 00:12:05;;;;;;;2.50;1.67;;;26.50;63.00;;;;;;5032890;28;20018;-58
2022/09/04 00:14:37;;;;;;;2.25;1.50;;;26.50;57.00;;;;;;5032818;28;20159;-58
2022/09/04 00:17:34;;;;;;;1.73;1.63;;;26.50;57.20;;;;;;5032633;28;20069;-58
2022/09/04 00:20:15;;;;;;;1.85;1.73;;;26.50;57.20;;;;;;5032724;28;20083;-58
2022/09/04 00:22:51;;;;;;;2.15;1.92;;;26.50;63.20;;;;;;5032882;28;20064;-58
2022/09/04 00:25:24;;;;;;;2.20;1.60;;;26.40;63.10;;;;;;5032624;28;20029;-58
2022/09/04 00:27:58;;;;;;;2.05;1.85;;;26.60;63.30;;;;;;5032943;28;20471;-58
2022/09/04 00:30:24;;;;;;;2.10;1.90;;;;;;;;;;5032553;28;20037;-58
2022/09/04 00:33:08;;;;;;;1.90;1.80;;;26.40;57.30;;;;;;5032534;28;20029;-58
2022/09/04 00:35:45;;;;;;;2.10;1.58;;;26.50;57.30;;;;;;5032511;28;20037;-58
2022/09/04 00:38:43;;;;;;;2.30;1.73;;;26.40;57.30;;;;;;5032388;28;20041;-58
2022/09/04 00:41:20;;;;;;;2.53;1.88;;;26.40;57.30;;;;;;5032358;28;20045;-58
2022/09/04 00:44:10;;;;;;;1.63;1.40;;;26.40;57.30;;;;;;5032313;28;20026;-58
2022/09/04 00:46:52;;;;;;;2.38;1.48;;;26.50;57.50;;;;;;5032298;28;20496;-58
2022/09/04 00:49:17;;;;;;;1.58;1.48;;;;;;;;;;5032291;28;20053;-58
2022/09/04 00:52:01;;;;;;;1.90;1.75;;;26.40;57.50;;;;;;5032234;28;20065;-58
2022/09/04 00:54:36;;;;;;;1.70;1.60;;;26.40;57.50;;;;;;5032108;28;20029;-58
2022/09/04 00:57:17;;;;;;;1.88;1.52;;;26.40;57.50;;;;;;5032120;28;20037;-58
2022/09/04 01:00:02;;;;;;;2.28;1.60;;;26.50;63.30;;;;;;5032187;28;20113;-58
2022/09/04 01:02:53;;;;;;;2.00;1.80;;;26.40;57.20;;;;;;5032201;28;20022;-58
2022/09/04 01:05:31;;;;;;;1.85;1.50;;;26.40;57.70;;;;;;5032333;28;20383;-58
2022/09/04 01:08:13;;;;;;;1.80;1.70;;;26.40;57.20;;;;;;5032202;28;20030;-58
2022/09/04 01:10:39;;;;;;;1.65;1.55;;;;;;;;;;5032076;28;20039;-58
2022/09/04 01:13:31;;;;;;;2.88;1.75;;;26.40;57.70;;;;;;5032049;28;20391;-58
2022/09/04 01:16:04;;;;;;;2.90;1.85;;;26.40;63.70;;;;;;5032065;28;20038;-58
2022/09/04 01:18:42;;;;;;;2.00;1.80;;;26.40;57.80;;;;;;5031986;28;20036;-58
2022/09/04 01:21:30;;;;;;;1.83;1.42;;;26.40;57.80;;;;;;5032053;28;20037;-58
2022/09/04 01:24:01;;;;;;;1.45;1.35;;;26.40;57.90;;;;;;5032102;28;20021;-58
2022/09/04 01:26:27;;;;;;;3.42;1.90;;;;;;;;;;5031866;28;20040;-58
2022/09/04 01:29:29;;;;;;;2.22;1.98;;;26.40;57.60;;;;;;5031883;28;20029;-58
2022/09/04 01:32:07;;;;;;;1.83;1.60;;;26.40;63.70;;;;;;5031923;28;20076;-58
2022/09/04 01:34:39;;;;;;;2.15;1.70;;;26.40;63.60;;;;;;5031895;28;20476;-58
2022/09/04 01:37:32;;;;;;;1.70;1.60;;;26.40;57.60;;;;;;5031783;28;20034;-58
2022/09/04 01:40:16;;;;;;;1.48;1.38;;;26.20;57.50;;;;;;5031827;28;20473;-58
2022/09/04 01:42:58;;;;;;;1.42;1.33;;;26.00;63.40;;;;;;5031756;28;20033;-58
2022/09/04 01:45:45;;;;;;;1.80;1.70;;;26.30;57.50;;;;;;5031512;28;20050;-58
2022/09/04 01:48:15;;;;;;;2.15;1.70;;;26.40;63.60;;;;;;5031785;28;20029;-58
2022/09/04 01:50:45;;;;;;;1.65;1.55;;;26.40;63.80;;;;;;5031591;28;20029;-58
2022/09/04 01:53:29;;;;;;;2.00;1.70;;;26.40;57.70;;;;;;5031659;28;20482;-58
2022/09/04 01:56:27;;;;;;;1.98;1.63;;;26.30;57.70;;;;;;5031655;28;20037;-58
2022/09/04 01:59:14;;;;;;;1.73;1.63;;;26.50;57.80;;;;;;5031618;28;20492;-58
2022/09/04 02:01:45;;;;;;;1.63;1.52;;;26.20;57.70;;;;;;5031907;28;20435;-58
2022/09/04 02:04:45;;;;;;;1.73;1.63;;;26.30;57.70;;;;;;5031612;28;20033;-58
2022/09/04 02:07:20;;;;;;;2.13;2.00;;;26.30;58.00;;;;;;5035212;28;20037;-58
2022/09/04 02:10:05;;;;;;;2.10;1.90;;;26.30;58.00;;;;;;5035118;28;20030;-58
2022/09/04 02:12:52;;;;;;;2.67;1.80;;;26.30;58.00;;;;;;5035226;28;20048;-58
2022/09/04 02:15:44;;;;;;;2.05;1.67;;;26.20;58.00;;;;;;5035098;28;20439;-58
2022/09/04 02:18:23;;;;;;;1.63;1.52;;;26.30;64.20;;;;;;4988993;28;20099;-57
2022/09/04 02:20:57;;;;;;;2.92;1.40;;;26.30;58.30;;;;;;5034978;28;20041;-52
2022/09/04 02:23:43;;;;;;;1.92;1.70;;;26.30;58.30;;;;;;5034951;28;20033;-56
2022/09/04 02:26:44;;;;;;;2.58;2.20;;;26.30;64.20;;;;;;5035156;28;20034;-55
2022/09/04 02:29:28;;;;;;;1.90;1.80;;;26.30;58.20;;;;;;5034830;28;20029;-54
2022/09/04 02:31:55;;;;;;;1.70;1.60;;;;;;;;;;5034772;28;20029;-56
2022/09/04 02:34:56;;;;;;;3.13;1.60;;;26.30;58.20;;;;;;5034772;28;20049;-54
2022/09/04 02:37:22;;;;;;;1.92;1.77;;;;;;;;;;4992877;28;20045;-53
2022/09/04 02:39:52;;;;;;;1.63;1.52;;;26.20;58.10;;;;;;5034686;28;20042;-53
2022/09/04 02:42:31;;;;;;;1.80;1.70;;;26.20;58.20;;;;;;5034873;28;20100;-55
2022/09/04 02:45:24;;;;;;;2.00;1.90;;;26.30;58.50;;;;;;5034353;28;20056;-55
2022/09/04 02:48:02;;;;;;;1.65;1.55;;;25.90;63.90;;;;;;5034406;28;20034;-55
2022/09/04 02:50:49;;;;;;;1.75;1.58;;;26.30;58.40;;;;;;5034492;28;20038;-55
2022/09/04 02:53:42;;;;;;;2.25;1.83;;;26.00;58.20;;;;;;5034414;28;20029;-55
2022/09/04 02:56:36;;;;;;;2.10;1.73;;;26.20;58.20;;;;;;5034638;28;20453;-58
2022/09/04 02:59:42;;;;;;;2.40;2.03;;;26.30;58.50;;;;;;5034095;28;20034;-57
2022/09/04 03:02:18;;;;;;;1.88;1.77;;;26.30;64.50;;;;;;5034227;28;20037;-58
2022/09/04 03:05:28;;;;;;;2.08;1.98;;;26.20;64.50;;;;;;5034209;28;20025;-58
2022/09/04 03:08:11;;;;;;;2.22;1.95;;;26.20;58.60;;;;;;5012450;28;20042;-58
2022/09/04 03:10:37;;;;;;;1.92;1.70;;;;;;;;;;5034090;28;20034;-58
2022/09/04 03:13:21;;;;;;;2.08;1.88;;;26.30;58.40;;;;;;5033946;28;20079;-58
2022/09/04 03:16:03;;;;;;;1.80;1.70;;;26.20;58.50;;;;;;5033878;28;20029;-57
2022/09/04 03:18:49;;;;;;;1.73;1.63;;;26.10;58.40;;;;;;5033861;28;20135;-57
2022/09/04 03:21:21;;;;;;;1.77;1.67;;;26.20;64.60;;;;;;5033896;28;20029;-57
2022/09/04 03:23:47;;;;;;;1.75;1.65;;;;;;;;;;5033857;28;20056;-58
2022/09/04 03:26:36;;;;;;;2.28;1.80;;;26.20;58.60;;;;;;5033736;28;20057;-58
2022/09/04 03:29:08;;;;;;;1.80;1.70;;;26.30;65.00;;;;;;5033974;28;20387;-58
2022/09/04 03:31:40;;;;;;;2.38;2.17;;;26.50;58.70;;;;;;5033743;28;20488;-59
2022/09/04 03:34:17;;;;;;;2.47;2.25;;;26.20;64.70;;;;;;5033617;28;20084;-58
2022/09/04 03:37:12;;;;;;;2.10;1.90;;;26.10;58.50;;;;;;5033398;28;20029;-58
2022/09/04 03:39:50;;;;;;;2.47;2.00;;;26.00;58.40;;;;;;5033503;28;20029;-58
2022/09/04 03:42:33;;;;;;;1.85;1.75;;;26.20;58.60;;;;;;5033472;28;20452;-58
2022/09/04 03:45:11;;;;;;;1.80;1.70;;;26.10;58.50;;;;;;5033151;28;20044;-58
2022/09/04 03:48:05;;;;;;;1.70;1.60;;;26.70;58.90;;;;;;5033337;28;20022;-58
2022/09/04 03:50:56;;;;;;;2.17;1.73;;;26.10;58.50;;;;;;5033401;28;20029;-57
2022/09/04 03:53:33;;;;;;;1.92;1.80;;;26.30;58.80;;;;;;5033316;28;20106;-58
2022/09/04 03:56:11;;;;;;;2.03;1.80;;;26.10;58.70;;;;;;5033235;28;20037;-58
2022/09/04 03:58:57;;;;;;;2.10;1.70;;;26.10;58.80;;;;;;5033003;28;20124;-58
2022/09/04 04:01:23;;;;;;;1.80;1.70;;;;;;;;;;5033090;28;20033;-58
2022/09/04 04:03:49;;;;;;;1.60;1.50;;;;;;;;;;5032997;28;20120;-58
2022/09/04 04:06:25;;;;;;;1.80;1.70;;;26.10;58.80;;;;;;5032899;28;20033;-58
2022/09/04 04:09:10;;;;;;;2.35;2.00;;;26.10;58.80;;;;;;5032969;28;20066;-55
2022/09/04 04:11:42;;;;;;;5.25;1.98;;;26.20;58.80;;;;;;5032955;28;20527;-57
2022/09/04 04:14:29;;;;;;;1.92;1.73;;;25.90;58.60;;;;;;5032821;28;20072;-58
2022/09/04 04:17:07;;;;;;;2.13;1.92;;;26.10;58.80;;;;;;5032737;28;20029;-58
2022/09/04 04:19:43;;;;;;;2.15;1.90;;;26.00;64.90;;;;;;5032690;28;20087;-58
2022/09/04 04:22:47;;;;;;;2.40;2.20;;;26.00;59.00;;;;;;5032668;28;20032;-58
2022/09/04 04:25:34;;;;;;;1.98;1.88;;;26.10;59.20;;;;;;4982203;28;20041;-58
2022/09/04 04:28:27;;;;;;;2.20;2.00;;;26.10;58.80;;;;;;5032045;28;20021;-58
2022/09/04 04:31:02;;;;;;;2.40;2.20;;;26.10;65.00;;;;;;5032840;28;20029;-58
2022/09/04 04:33:53;;;;;;;1.83;1.73;;;26.10;64.90;;;;;;5032634;28;20125;-58
2022/09/04 04:36:31;;;;;;;1.90;1.80;;;26.00;58.90;;;;;;5032573;28;20037;-58
2022/09/04 04:38:56;;;;;;;2.40;2.10;;;;;;;;;;5032284;28;20472;-58
2022/09/04 04:41:23;;;;;;;2.53;2.33;;;;;;;;;;5032380;28;20036;-58
2022/09/04 04:44:07;;;;;;;2.40;2.17;;;26.00;58.70;;;;;;5032317;28;20109;-58
2022/09/04 04:47:14;;;;;;;2.13;1.92;;;26.10;58.90;;;;;;5032295;28;20561;-58
2022/09/04 04:50:05;;;;;;;2.40;2.20;;;26.00;58.80;;;;;;5032222;28;20085;-58
2022/09/04 04:52:54;;;;;;;2.25;2.00;;;26.00;58.90;;;;;;5032210;28;20040;-58
2022/09/04 04:55:40;;;;;;;2.30;2.10;;;26.00;65.00;;;;;;5032158;28;20116;-58
2022/09/04 04:58:10;;;;;;;2.40;2.17;;;;;;;;;;5032371;28;20095;-57
2022/09/04 05:01:14;;;;;;;2.60;2.40;;;26.00;59.00;;;;;;5032459;28;20025;-58
2022/09/04 05:04:01;;;;;;;2.70;2.00;;;26.20;59.10;;;;;;5032156;28;20024;-58
2022/09/04 05:06:53;;;;;;;2.28;2.08;;;26.10;59.20;;;;;;5032177;28;20542;-58
2022/09/04 05:09:47;;;;;;;3.13;1.92;;;26.00;58.90;;;;;;5032107;28;20087;-58
2022/09/04 05:12:41;;;;;;;2.10;2.00;;;26.20;59.30;;;;;;4989589;28;20488;-58
2022/09/04 05:15:21;;;;;;;2.88;2.30;;;26.00;59.00;;;;;;5032003;28;20033;-58
2022/09/04 05:18:00;;;;;;;1.95;1.85;;;26.20;58.90;;;;;;5032191;28;20037;-58
2022/09/04 05:20:26;;;;;;;2.40;2.20;;;;;;;;;;5032155;28;20041;-57
2022/09/04 05:23:01;;;;;;;2.10;1.90;;;26.00;59.00;;;;;;5032073;28;20549;-57
2022/09/04 05:25:54;;;;;;;3.08;2.35;;;25.90;59.20;;;;;;5031930;28;20057;-56
2022/09/04 05:28:22;;;;;;;2.00;1.90;;;26.00;59.30;;;;;;5031923;28;20392;-58
2022/09/04 05:30:58;;;;;;;2.40;2.20;;;26.00;59.10;;;;;;5031876;28;20060;-58
2022/09/04 05:33:43;;;;;;;4.63;2.10;;;25.90;59.20;;;;;;5031847;28;20032;-57
2022/09/04 05:36:09;;;;;;;2.05;1.85;;;;;;;;;;5032038;28;20037;-56
2022/09/04 05:38:35;;;;;;;2.33;2.13;;;;;;;;;;5032390;28;20042;-56
2022/09/04 05:41:01;;;;;;;1.90;1.80;;;;;;;;;;5035877;28;20037;-51
2022/09/04 05:43:40;;;;;;;2.40;2.20;;;26.00;59.50;;;;;;5035594;28;20056;-52
2022/09/04 05:46:30;;;;;;;2.30;2.10;;;25.90;65.50;;;;;;5035499;28;20469;-51
2022/09/04 05:49:10;;;;;;;2.72;2.28;;;26.00;59.30;;;;;;5035672;28;20156;-55
2022/09/04 05:51:44;;;;;;;;;;;25.90;65.80;;;;;;5036001;28;20029;-56
2022/09/04 05:54:10;;;;;;;4.38;2.35;;;;;;;;;;5035519;28;19951;-56
2022/09/04 05:56:39;;;;;;;3.90;2.20;;;;;;;;;;5035437;28;20033;-53
2022/09/04 05:59:23;;;;;;;2.45;2.25;;;25.90;59.40;;;;;;5035401;28;20041;-55
2022/09/04 06:02:13;;;;;;;2.30;2.10;;;25.90;59.20;;;;;;5034076;28;20527;-56
2022/09/04 06:05:18;;;;;;;2.25;2.05;;;25.90;59.40;;;;;;5035386;28;20061;-53
2022/09/04 06:08:05;;;;;;;1.90;1.70;;;26.00;59.30;;;;;;4984547;28;20492;-56
2022/09/04 06:10:31;;;;;;;2.40;2.20;;;;;;;;;;5035196;28;20112;-54
2022/09/04 06:13:08;;;;;;;5.07;2.20;;;25.90;59.10;;;;;;5035138;28;20463;-55
2022/09/04 06:16:01;;;;;;;2.08;1.98;;;25.90;59.20;;;;;;5035140;28;20029;-56
2022/09/04 06:18:59;;;;;;;2.58;1.98;;;26.00;59.40;;;;;;5035093;28;20045;-54
2022/09/04 06:21:52;;;;;;;3.05;2.50;;;25.90;59.10;;;;;;5035054;28;20021;-56
2022/09/04 06:24:43;;;;;;;2.28;1.98;;;25.90;59.00;;;;;;5034945;28;20036;-56
2022/09/04 06:27:17;;;;;;;2.33;2.08;;;26.00;59.20;;;;;;5034876;28;20069;-55
2022/09/04 06:30:00;;;;;;;2.22;2.03;;;25.90;59.20;;;;;;5034814;28;20464;-56
2022/09/04 06:32:51;;;;;;;2.47;2.28;;;25.90;65.20;;;;;;5034896;28;20033;-56
2022/09/04 06:35:39;;;;;;;2.42;2.22;;;25.70;58.90;;;;;;5034844;28;20025;-56
2022/09/04 06:38:31;;;;;;;2.00;1.90;;;25.90;58.90;;;;;;5034732;28;20115;-56
2022/09/04 06:41:30;;;;;;;2.15;1.95;;;25.80;58.70;;;;;;4996706;28;20038;-56
2022/09/04 06:43:56;;;;;;;1.98;1.88;;;;;;;;;;5034540;28;20086;-57
2022/09/04 06:46:38;;;;;;;1.98;1.70;;;26.00;58.90;;;;;;5034442;28;20132;-56
2022/09/04 06:49:12;;;;;;;2.13;1.92;;;26.10;58.80;;;;;;5034607;28;20048;-57
2022/09/04 06:52:06;;;;;;;1.90;1.80;;;26.10;58.80;;;;;;5033842;28;20479;-54
2022/09/04 06:54:55;;;;;;;3.40;2.03;;;26.10;58.60;;;;;;5034302;28;20064;-57
2022/09/04 06:57:34;;;;;;;4.82;1.90;;;26.10;58.90;;;;;;5034238;28;20033;-56
2022/09/04 07:00:02;;;;;;;2.80;1.90;;;26.10;58.90;;;;;;5034635;28;20437;-56
2022/09/04 07:03:01;;;;;;;3.22;1.85;;;26.00;58.80;;;;;;5034297;28;20033;-56
2022/09/04 07:05:32;;;;;;;2.17;1.60;;;26.10;58.90;;;;;;5034227;28;20045;-54
2022/09/04 07:08:42;;;;;;;3.05;1.95;;;26.10;58.80;;;;;;5034112;28;20034;-57
2022/09/04 07:11:14;;;;;;;2.75;1.83;;;26.10;58.70;;;;;;5029231;28;20127;-56
2022/09/04 07:13:42;;;;;;;2.05;1.70;;;26.10;58.80;;;;;;5034117;28;20026;-57
2022/09/04 07:16:08;;;;;;;3.13;1.90;;;;;;;;;;5033916;28;20029;-55
2022/09/04 07:18:35;;;;;;;2.13;1.90;;;;;;;;;;5033853;28;20041;-56
2022/09/04 07:21:01;;;;;;;1.92;1.83;;;;;;;;;;5033822;28;20022;-56
2022/09/04 07:23:27;;;;;;;3.50;2.20;;;;;;;;;;5033834;28;20091;-52
2022/09/04 07:26:27;;;;;;;2.92;2.72;;;26.20;59.40;;;;;;5033770;28;20499;-55
2022/09/04 07:29:18;;;;;;;2.13;1.95;;;26.10;65.50;;;;;;5034038;28;20025;-56
2022/09/04 07:32:14;;;;;;;5.10;2.25;;;26.10;59.20;;;;;;5033873;28;20032;-56
2022/09/04 07:35:02;;;;;;;4.30;2.67;;;26.10;65.50;;;;;;5033745;28;20041;-56
2022/09/04 07:37:59;;;;;;;3.15;2.08;;;26.10;59.70;;;;;;5033407;28;20045;-56
2022/09/04 07:40:40;;;;;;;3.83;2.63;;;26.10;59.80;;;;;;5033833;28;20101;-55
2022/09/04 07:43:06;;;;;;;2.85;2.40;;;;;;;;;;5033471;28;20476;-56
2022/09/04 07:45:50;;;;;;;2.85;2.53;;;26.20;59.70;;;;;;5033230;28;20103;-56
2022/09/04 07:48:42;;;;;;;4.53;2.75;;;26.20;59.80;;;;;;5033486;28;20030;-56
2022/09/04 07:51:25;;;;;;;3.53;2.92;;;26.10;59.70;;;;;;5033622;28;20033;-56
2022/09/04 07:54:17;;;;;;;2.88;2.60;;;26.10;59.70;;;;;;5033315;28;20022;-56
2022/09/04 07:57:11;;;;;;;3.88;2.45;;;26.10;59.80;;;;;;5033230;28;20032;-56
2022/09/04 07:59:36;;;;;;;3.28;2.75;;;;;;;;;;5033215;28;20039;-56
2022/09/04 08:02:41;;;;;;;3.00;2.70;;;26.10;60.00;;;;;;5032256;28;20405;-54
2022/09/04 08:05:40;;;;;;;2.88;2.63;;;26.20;60.00;;;;;;5033054;28;20032;-57
2022/09/04 08:08:31;;;;;;;5.97;2.80;;;26.20;60.20;;;;;;5033158;28;20033;-54
2022/09/04 08:11:09;;;;;;;;;;;26.20;66.60;;;;;;5033677;28;20025;-57
2022/09/04 08:14:08;;;;;;;6.18;2.15;;;26.20;60.20;;;;;;5032980;28;19905;-56
2022/09/04 08:17:24;;;;;;;2.50;2.30;;;26.20;60.10;;;;;;5032908;28;20026;-56
2022/09/04 08:20:08;;;;;;;3.15;2.60;;;26.10;60.20;;;;;;4933298;29;20050;-56
2022/09/04 08:22:51;;;;;;;6.03;2.70;;;26.10;66.50;;;;;;4933383;29;20070;-56
2022/09/04 08:25:18;;;;;;;3.22;2.30;;;;;;;;;;5007630;28;20037;-56
2022/09/04 08:28:11;;;;;;;3.53;2.30;;;26.10;60.20;;;;;;5032788;28;20033;-55
2022/09/04 08:30:52;;;;;;;3.42;2.55;;;26.30;66.60;;;;;;5015055;28;20029;-57
2022/09/04 08:33:30;;;;;;;3.67;2.60;;;26.30;66.70;;;;;;5032887;28;20025;-56
2022/09/04 08:35:56;;;;;;;4.82;2.72;;;;;;;;;;5014909;28;20492;-57
2022/09/04 08:38:39;;;;;;;5.50;2.60;;;26.40;60.50;;;;;;5032379;28;20076;-56
2022/09/04 08:41:08;;;;;;;4.80;2.80;;;;;;;;;;5032546;28;20025;-55
2022/09/04 08:44:10;;;;;;;5.65;3.00;;;26.40;60.50;;;;;;5032477;28;20042;-56
2022/09/04 08:46:37;;;;;;;3.03;2.75;;;;;;;;;;5032348;28;20389;-56
2022/09/04 08:49:27;;;;;;;3.38;2.83;;;26.50;59.70;;;;;;5032381;28;20036;-56
2022/09/04 08:52:21;;;;;;;3.65;2.85;;;26.50;59.80;;;;;;5032407;28;20033;-57
2022/09/04 08:55:24;;;;;;;3.30;2.80;;;26.50;59.50;;;;;;5032598;28;20400;-56
2022/09/04 08:57:51;;;;;;;4.18;2.90;;;;;;;;;;5032186;28;20045;-56
2022/09/04 09:00:19;;;;;;;4.78;2.75;;;26.60;65.70;;;;;;5032267;28;20033;-56
2022/09/04 09:03:17;;;;;;;3.60;3.20;;;26.60;59.90;;;;;;5032226;28;20399;-54
2022/09/04 09:06:00;;;;;;;4.10;3.10;;;26.60;59.70;;;;;;5032207;28;20095;-53
2022/09/04 09:09:19;;;;;;;3.13;2.50;;;26.80;59.80;;;;;;5032016;28;20034;-55
2022/09/04 09:12:07;;;;;;;3.38;2.58;;;27.10;60.10;;;;;;5026495;28;20396;-56
2022/09/04 09:15:04;;;;;;;3.28;2.83;;;26.80;59.60;;;;;;5034523;28;20025;-55
2022/09/04 09:17:58;;;;;;;3.00;2.65;;;26.80;59.70;;;;;;5035951;28;20071;-56
2022/09/04 09:20:28;;;;;;;3.67;2.83;;;;;;;;;;5035694;28;20041;-56
2022/09/04 09:23:31;;;;;;;4.57;3.28;;;26.90;59.80;;;;;;5036148;28;20036;-56
2022/09/04 09:26:08;;;;;;;3.92;3.25;;;27.10;59.90;;;;;;5018259;28;20033;-56
2022/09/04 09:29:11;;;;;;;3.00;2.70;;;26.90;65.80;;;;;;5036241;28;20097;-56
2022/09/04 09:32:21;;;;;;;4.40;3.00;;;26.90;59.60;;;;;;5035924;28;20025;-55
2022/09/04 09:35:31;;;;;;;3.13;2.80;;;26.80;59.60;;;;;;5035909;28;20519;-56
2022/09/04 09:38:35;;;;;;;3.20;2.63;;;27.10;59.60;;;;;;5036069;28;20041;-56
2022/09/04 09:41:33;;;;;;;3.58;2.70;;;27.00;62.70;;;;;;5035892;28;20021;-58
2022/09/04 09:44:11;;;;;;;2.90;2.70;;;27.20;59.70;;;;;;4981195;28;20040;-56
2022/09/04 09:46:57;;;;;;;5.00;2.75;;;27.20;59.90;;;;;;5035422;28;20099;-55
2022/09/04 09:49:57;;;;;;;4.75;2.67;;;27.30;60.00;;;;;;5035583;28;20036;-57
2022/09/04 09:52:32;;;;;;;3.40;2.30;;;26.90;59.90;;;;;;5035762;28;20373;-56
2022/09/04 09:55:20;;;;;;;3.20;2.40;;;27.30;60.70;;;;;;5035744;28;20021;-56
2022/09/04 09:57:45;;;;;;;6.22;2.65;;;;;;;;;;5017640;28;20076;-55
2022/09/04 10:00:11;;;;;;;5.18;2.60;;;;;;;;;;5035486;28;20507;-55
2022/09/04 10:02:59;;;;;;;6.45;2.80;;;27.40;61.80;;;;;;5035422;28;20180;-56
2022/09/04 10:05:43;;;;;;;2.75;2.53;;;27.40;61.00;;;;;;5035260;28;20100;-56
2022/09/04 10:08:27;;;;;;;3.83;2.83;;;27.20;60.90;;;;;;5035280;28;20064;-51
2022/09/04 10:10:58;;;;;;;3.03;2.60;;;27.50;67.40;;;;;;5035590;28;20391;-51
2022/09/04 10:13:45;;;;;;;5.57;3.47;;;27.60;61.10;;;;;;5035253;28;20030;-54
2022/09/04 10:17:01;;;;;;;7.03;3.45;;;27.70;60.90;;;;;;5035293;28;20029;-52
2022/09/04 10:19:49;;;;;;;5.18;4.00;;;27.50;60.80;;;;;;4993145;28;20393;-52
2022/09/04 10:22:15;;;;;;;4.57;3.47;;;;;;;;;;5034923;28;20033;-54
2022/09/04 10:25:13;;;;;;;6.32;3.80;;;27.60;60.50;;;;;;5034437;28;20391;-53
2022/09/04 10:27:47;;;;;;;5.07;3.63;;;27.60;61.20;;;;;;5035011;28;20037;-52
2022/09/04 10:30:20;;;;;;;5.65;3.75;;;27.70;66.40;;;;;;5035167;28;20075;-52
2022/09/04 10:33:05;;;;;;;5.45;3.35;;;27.80;60.30;;;;;;5034821;28;20113;-52
2022/09/04 10:36:09;;;;;;;5.97;3.78;;;27.70;60.00;;;;;;5034770;28;20034;-53
2022/09/04 10:41:57;;;;;;;4.32;3.67;;;27.90;60.20;;;;;;5034680;28;20036;-56
2022/09/04 10:44:23;;;;;;;8.25;3.80;;;;;;;;;;5033822;28;20032;-56
2022/09/04 10:47:27;;;;;;;3.97;3.25;;;27.80;60.20;;;;;;5034404;28;20053;-56
2022/09/04 10:50:29;;;;;;;5.47;3.92;;;27.80;59.80;;;;;;4947139;28;20044;-55
2022/09/04 10:53:00;;;;;;;7.88;3.90;;;;;;;;;;5034518;28;20476;-55
2022/09/04 10:56:04;;;;;;;5.15;3.45;;;27.90;59.60;;;;;;5034560;28;20112;-56
2022/09/04 10:58:48;;;;;;;4.47;3.70;;;27.90;59.30;;;;;;5034250;28;20119;-56
2022/09/04 11:01:29;;;;;;;7.18;3.58;;;27.90;59.60;;;;;;5034319;28;20438;-56
2022/09/04 11:04:12;;;;;;;6.82;4.10;;;27.80;59.20;;;;;;5034240;28;20057;-56
2022/09/04 11:07:02;;;;;;;4.82;3.50;;;27.90;59.30;;;;;;5034232;28;20028;-56
2022/09/04 11:09:48;;;;;;;7.00;3.42;;;28.00;59.30;;;;;;5034129;28;20108;-55
2022/09/04 11:12:23;;;;;;;6.60;4.07;;;28.00;59.20;;;;;;5034174;28;20026;-55
2022/09/04 11:14:55;;;;;;;6.47;4.00;;;28.00;59.10;;;;;;5034012;28;20033;-55
2022/09/04 11:17:21;;;;;;;3.40;3.10;;;;;;;;;;5033862;28;20507;-56
2022/09/04 11:20:26;;;;;;;4.07;3.08;;;28.00;58.70;;;;;;5033906;28;20057;-53
2022/09/04 11:23:25;;;;;;;4.68;3.35;;;28.00;58.60;;;;;;5033767;28;20393;-56
2022/09/04 11:26:09;;;;;;;4.35;3.10;;;28.00;58.50;;;;;;5034065;28;20424;-56
2022/09/04 11:29:15;;;;;;;5.65;3.50;;;28.00;58.40;;;;;;5033679;28;20034;-56
2022/09/04 11:32:10;;;;;;;3.50;3.05;;;28.10;58.60;;;;;;5033860;28;20067;-55
2022/09/04 11:35:13;;;;;;;4.78;3.60;;;28.20;58.60;;;;;;5034032;28;20026;-56
2022/09/04 11:38:02;;;;;;;3.40;3.10;;;28.10;58.40;;;;;;5033335;28;20046;-55
2022/09/04 11:40:28;;;;;;;4.68;3.15;;;;;;;;;;5033582;28;20040;-56
2022/09/04 11:43:29;;;;;;;4.55;3.10;;;28.10;64.40;;;;;;5033495;28;20022;-55
2022/09/04 11:46:25;;;;;;;4.65;3.42;;;28.10;58.30;;;;;;5033398;28;20554;-55
2022/09/04 11:48:52;;;;;;;3.33;2.75;;;;;;;;;;5033389;28;20028;-56
2022/09/04 11:51:44;;;;;;;4.05;3.47;;;28.20;58.70;;;;;;5033352;28;20082;-53
2022/09/04 11:54:37;;;;;;;4.32;3.22;;;28.10;58.30;;;;;;5033230;28;20037;-55
2022/09/04 11:57:28;;;;;;;4.57;3.30;;;28.10;58.40;;;;;;5033183;28;20034;-57
2022/09/04 12:00:04;;;;;;;3.80;3.38;;;28.20;58.60;;;;;;5033203;28;20029;-56
2022/09/04 12:02:57;;;;;;;5.80;3.42;;;28.10;58.70;;;;;;5033225;28;20092;-56
2022/09/04 12:05:38;;;;;;;3.72;3.35;;;;;;;;;;5033109;28;20384;-56
2022/09/04 12:08:24;;;;;;;5.57;3.25;;;28.10;58.50;;;;;;5033145;28;20038;-56
2022/09/04 12:11:23;;;;;;;3.75;3.20;;;28.10;58.50;;;;;;5033013;28;20033;-55
2022/09/04 12:14:04;;;;;;;3.53;3.25;;;28.10;58.40;;;;;;5033072;28;20029;-55
2022/09/04 12:17:14;;;;;;;4.00;3.60;;;28.10;58.30;;;;;;5032896;28;20038;-56
2022/09/04 12:20:08;;;;;;;5.55;3.45;;;28.20;58.50;;;;;;4988753;28;20049;-56
2022/09/04 12:23:11;;;;;;;3.70;3.30;;;28.20;58.60;;;;;;5032791;28;20087;-56
2022/09/04 12:26:11;;;;;;;3.92;3.08;;;28.10;58.60;;;;;;5032763;28;20025;-56
2022/09/04 12:29:09;;;;;;;3.78;3.30;;;28.10;58.40;;;;;;5032663;28;20119;-56
2022/09/04 12:31:35;;;;;;;3.85;3.10;;;;;;;;;;5032658;28;20053;-56
2022/09/04 12:34:38;;;;;;;3.17;2.88;;;28.10;58.50;;;;;;5032781;28;20518;-55
2022/09/04 12:37:22;;;;;;;3.20;2.92;;;28.10;58.30;;;;;;5032382;28;20029;-56
2022/09/04 12:40:24;;;;;;;3.58;3.05;;;28.10;58.20;;;;;;5032454;28;20030;-55
2022/09/04 12:43:04;;;;;;;3.83;3.22;;;28.10;58.30;;;;;;5032709;28;20040;-54
2022/09/04 12:45:53;;;;;;;3.60;3.30;;;28.00;58.30;;;;;;5032127;28;20050;-56
2022/09/04 12:48:31;;;;;;;4.60;3.35;;;28.10;58.00;;;;;;5031857;28;20025;-56
2022/09/04 12:51:20;;;;;;;3.70;3.40;;;28.00;58.20;;;;;;5032225;28;20065;-55
2022/09/04 12:54:07;;;;;;;3.97;3.65;;;28.10;58.20;;;;;;5032339;28;20083;-55
2022/09/04 12:56:42;;;;;;;4.25;3.42;;;28.10;58.40;;;;;;5032234;28;20029;-54
2022/09/04 12:59:34;;;;;;;5.35;3.83;;;28.00;64.20;;;;;;5032215;28;20047;-56
2022/09/04 13:02:17;;;;;;;4.35;3.58;;;28.00;58.20;;;;;;5032561;28;20163;-56
2022/09/04 13:05:02;;;;;;;4.00;3.30;;;28.00;64.10;;;;;;5032215;28;20396;-56
2022/09/04 13:07:28;;;;;;;4.57;3.30;;;;;;;;;;5032193;28;20034;-56
2022/09/04 13:10:11;;;;;;;3.65;3.28;;;28.00;64.30;;;;;;5032154;28;20029;-56
2022/09/04 13:13:00;;;;;;;3.83;3.45;;;28.10;64.10;;;;;;5032055;28;20063;-55
2022/09/04 13:15:43;;;;;;;5.22;3.30;;;28.10;58.20;;;;;;5031945;28;20480;-54
2022/09/04 13:18:33;;;;;;;3.30;3.00;;;28.00;58.20;;;;;;5031944;28;20043;-55
2022/09/04 13:21:08;;;;;;;4.63;3.30;;;28.00;58.10;;;;;;5032110;28;20021;-55
2022/09/04 13:23:56;;;;;;;4.45;3.72;;;28.00;58.40;;;;;;5031998;28;20057;-56
2022/09/04 13:26:41;;;;;;;3.78;3.42;;;28.00;58.30;;;;;;5032186;28;20068;-56
2022/09/04 13:29:35;;;;;;;3.75;3.35;;;28.00;58.20;;;;;;5031929;28;20021;-56
2022/09/04 13:32:45;;;;;;;4.05;3.30;;;28.00;58.30;;;;;;5031901;28;20026;-55
2022/09/04 13:35:23;;;;;;;4.20;3.33;;;28.00;58.40;;;;;;5031814;28;20041;-56
2022/09/04 13:38:31;;;;;;;4.00;3.55;;;27.90;58.10;;;;;;5031818;28;20423;-55
2022/09/04 13:41:27;;;;;;;4.03;3.05;;;27.80;58.10;;;;;;5031827;28;20485;-54
2022/09/04 13:44:11;;;;;;;3.08;2.78;;;28.00;58.20;;;;;;5031833;28;20025;-55
2022/09/04 13:46:45;;;;;;;3.63;3.00;;;28.30;64.40;;;;;;5031519;28;20561;-56
2022/09/04 13:49:20;;;;;;;3.83;3.22;;;28.10;63.80;;;;;;5031766;28;20083;-55
2022/09/04 13:51:58;;;;;;;6.18;3.45;;;28.00;64.00;;;;;;5032077;28;20057;-55
2022/09/04 13:54:57;;;;;;;3.33;3.00;;;28.00;64.00;;;;;;5031999;28;20387;-57
2022/09/04 13:57:27;;;;;;;3.58;2.90;;;28.00;64.00;;;;;;5010117;28;20396;-56
2022/09/04 13:59:58;;;;;;;4.82;3.28;;;27.90;63.80;;;;;;5032873;28;20033;-56
2022/09/04 14:02:26;;;;;;;3.25;2.95;;;27.80;63.60;;;;;;5035590;28;20447;-56
2022/09/04 14:05:00;;;;;;;4.30;3.30;;;28.00;63.90;;;;;;5035230;28;20032;-55
2022/09/04 14:07:37;;;;;;;3.60;2.80;;;28.00;57.70;;;;;;5035350;28;20078;-55
2022/09/04 14:10:10;;;;;;;3.50;2.95;;;27.90;63.50;;;;;;5035325;28;20033;-56
2022/09/04 14:12:58;;;;;;;4.05;3.38;;;27.90;57.60;;;;;;5035304;28;20518;-56
2022/09/04 14:15:31;;;;;;;3.85;3.47;;;;;;;;;;5035279;28;20468;-55
2022/09/04 14:18:12;;;;;;;4.35;3.03;;;27.70;57.70;;;;;;5035155;28;20044;-55
2022/09/04 14:20:56;;;;;;;3.60;3.22;;;27.90;57.50;;;;;;5035208;28;20030;-56
2022/09/04 14:23:51;;;;;;;4.68;2.97;;;28.00;58.00;;;;;;5035071;28;20087;-56
2022/09/04 14:26:27;;;;;;;3.08;2.78;;;28.00;57.90;;;;;;5035065;28;20112;-56
2022/09/04 14:29:44;;;;;;;3.42;3.13;;;28.00;57.90;;;;;;5034936;28;20037;-56
2022/09/04 14:32:21;;;;;;;3.58;3.28;;;27.90;57.70;;;;;;4980426;28;20087;-56
2022/09/04 14:35:19;;;;;;;4.30;3.63;;;28.00;57.80;;;;;;5035108;28;20025;-56